Terminal Aerodrome Forecast
Issued by NWS Wichita, KS

Home | Current Version | Previous Version | Graphics & Text | Print | Product List | Glossary On
Versions: 1 2 3 4 5 6 7 8 9 10 11 12 13 14 15 16 17 18 19 20 21 22 23 24 25 26 27 28 29
000
FTUS43 KICT 232340
TAFICT
TAF
KICT 232340Z 2400/2424 07012KT 6SM -TSRA SCT005 OVC080CB
      TEMPO 2400/2402 3SM TSRA BKN005 OVC035CB
     FM240300 14009KT 5SM -SHRA VCTS OVC005CB
     FM240600 14008KT 3SM BR VCTS OVC004CB
     FM241500 15009KT 4SM BR OVC015
     FM241800 16012KT P6SM VCTS SCT020 OVC035CB=

USA.gov is the U.S. government's official web portal to all federal, state and local government web resources and services.